Time;durP1;ratioP1;P1;durP2;ratioP2;P2;SDS_P1;SDS_P2;PMS_P1;PMS_P2;Temp;Humidity;BMP_temperature;BMP_pressure;BME280_temperature;BME280_humidity;BME280_pressure;Samples;Min_cycle;Max_cycle;Signal;HPM_P1;HPM_P2
2023/03/15 00:01:45;;;;;;;9.18;2.95;;;;;;;;;;4958947;28;25085;-73
2023/03/15 00:04:12;;;;;;;6.25;1.92;;;6.40;99.90;;;;;;4960783;28;25084;-73
2023/03/15 00:06:38;;;;;;;3.47;1.67;;;;;;;;;;4954251;28;25047;-74
2023/03/15 00:09:04;;;;;;;8.10;2.25;;;;;;;;;;4944650;28;25157;-75
2023/03/15 00:11:30;;;;;;;4.32;1.38;;;6.30;99.90;;;;;;4966073;28;25083;-73
2023/03/15 00:14:01;;;;;;;3.92;1.10;;;;;;;;;;4967391;28;25175;-74
2023/03/15 00:16:27;;;;;;;2.55;1.38;;;;;;;;;;4959387;28;25074;-74
2023/03/15 00:18:54;;;;;;;7.15;1.33;;;;;;;;;;4965715;28;25120;-74
2023/03/15 00:21:20;;;;;;;6.10;1.33;;;;;;;;;;4968737;28;25059;-74
2023/03/15 00:23:46;;;;;;;4.60;1.38;;;;;;;;;;4951541;28;25067;-74
2023/03/15 00:26:12;;;;;;;3.38;1.40;;;;;;;;;;4967938;28;25088;-75
2023/03/15 00:28:38;;;;;;;4.72;1.40;;;;;;;;;;4945513;28;25060;-74
2023/03/15 00:31:05;;;;;;;4.20;1.50;;;;;;;;;;4964986;28;25130;-73
2023/03/15 00:33:33;;;;;;;3.10;1.30;;;;;;;;;;4964744;28;25056;-74
2023/03/15 00:36:01;;;;;;;6.97;1.42;;;;;;;;;;4961818;28;25054;-73
2023/03/15 00:38:27;;;;;;;5.55;1.60;;;;;;;;;;4961035;28;25065;-73
2023/03/15 00:40:53;;;;;;;4.88;1.40;;;;;;;;;;4957656;28;25092;-73
2023/03/15 00:43:19;;;;;;;3.88;1.20;;;;;;;;;;4954337;28;25072;-74
2023/03/15 00:45:45;;;;;;;9.48;1.30;;;;;;;;;;4962602;28;25065;-74
2023/03/15 00:48:11;;;;;;;4.30;1.45;;;;;;;;;;4971974;28;25505;-75
2023/03/15 00:50:37;;;;;;;5.78;1.52;;;;;;;;;;4961365;28;25067;-72
2023/03/15 00:53:03;;;;;;;6.07;1.05;;;;;;;;;;4963504;28;25078;-74
2023/03/15 00:55:29;;;;;;;2.50;1.15;;;;;;;;;;4954654;28;25078;-73
2023/03/15 00:57:55;;;;;;;4.93;1.10;;;;;;;;;;4959436;28;25063;-74
2023/03/15 01:00:23;;;;;;;3.45;1.10;;;;;;;;;;4959466;28;25077;-72
2023/03/15 01:02:50;;;;;;;2.67;1.45;;;;;;;;;;4968267;28;25046;-73
2023/03/15 01:05:16;;;;;;;7.95;1.33;;;6.10;99.90;;;;;;4965960;28;25170;-76
2023/03/15 01:07:44;;;;;;;7.97;1.27;;;;;;;;;;4951578;28;25093;-73
2023/03/15 01:10:11;;;;;;;3.42;1.33;;;;;;;;;;4970257;28;25083;-74
2023/03/15 01:12:37;;;;;;;2.38;1.27;;;;;;;;;;4952989;28;25079;-74
2023/03/15 01:15:05;;;;;;;3.15;1.65;;;;;;;;;;4957293;28;25170;-74
2023/03/15 01:17:31;;;;;;;4.28;1.52;;;;;;;;;;4957298;28;25141;-75
2023/03/15 01:19:57;;;;;;;2.58;1.35;;;6.30;99.90;;;;;;4971878;28;25065;-74
2023/03/15 01:22:23;;;;;;;5.53;1.05;;;;;;;;;;4957009;28;25068;-74
2023/03/15 01:24:49;;;;;;;3.35;1.50;;;;;;;;;;4946771;28;25054;-74
2023/03/15 01:27:15;;;;;;;3.20;1.38;;;;;;;;;;4959491;28;25059;-74
2023/03/15 01:29:41;;;;;;;5.63;1.30;;;;;;;;;;4957482;28;25078;-75
2023/03/15 01:32:08;;;;;;;5.43;1.60;;;;;;;;;;4960111;28;25085;-74
2023/03/15 01:34:34;;;;;;;3.78;2.20;;;;;;;;;;4956502;28;25064;-73
2023/03/15 01:37:01;;;;;;;3.47;1.60;;;;;;;;;;4960232;28;25061;-73
2023/03/15 01:39:27;;;;;;;4.90;1.30;;;;;;;;;;4962198;28;25058;-75
2023/03/15 01:41:53;;;;;;;4.45;1.08;;;;;;;;;;4966671;28;25064;-74
2023/03/15 01:44:19;;;;;;;2.03;1.10;;;;;;;;;;4958693;28;25067;-73
2023/03/15 01:46:45;;;;;;;4.35;1.23;;;;;;;;;;4943830;28;25097;-75
2023/03/15 01:49:17;;;;;;;2.45;1.23;;;;;;;;;;4965440;28;25172;-74
2023/03/15 01:51:46;;;;;;;3.42;1.40;;;;;;;;;;4976045;28;25092;-73
2023/03/15 01:54:31;;;;;;;1.95;1.25;;;;;;;;;;4957355;28;25092;-74
2023/03/15 01:57:01;;;;;;;2.25;1.30;;;;;;;;;;4964757;28;25078;-74
2023/03/15 01:59:31;;;;;;;6.57;1.73;;;;;;;;;;4954480;28;25073;-74
2023/03/15 02:01:57;;;;;;;2.10;1.20;;;;;;;;;;4959132;28;25068;-74
2023/03/15 02:04:27;;;;;;;5.88;1.38;;;;;;;;;;4957868;28;25170;-74
2023/03/15 02:06:57;;;;;;;3.63;1.33;;;;;;;;;;4962206;28;25074;-74
2023/03/15 02:09:27;;;;;;;7.35;1.88;;;;;;;;;;4952569;28;25069;-74
2023/03/15 02:11:53;;;;;;;3.85;1.40;;;;;;;;;;4968399;28;25079;-75
2023/03/15 02:14:21;;;;;;;5.68;1.52;;;;;;;;;;4959834;28;25066;-72
2023/03/15 02:16:48;;;;;;;2.92;1.67;;;;;;;;;;4953464;28;25049;-75
2023/03/15 02:19:32;;;;;;;12.10;1.65;;;5.50;99.90;;;;;;4994459;28;25070;-73
2023/03/15 02:22:11;;;;;;;6.45;2.25;;;;;;;;;;4964936;28;25068;-72
2023/03/15 02:24:43;;;;;;;2.25;1.80;;;;;;;;;;4950046;28;25070;-73
2023/03/15 02:27:09;;;;;;;3.22;1.90;;;;;;;;;;4965346;28;25077;-73
2023/03/15 02:29:35;;;;;;;6.82;2.10;;;;;;;;;;4953817;28;25082;-74
2023/03/15 02:32:04;;;;;;;5.20;1.95;;;;;;;;;;4974338;28;25052;-72
2023/03/15 02:34:31;;;;;;;5.82;1.50;;;;;;;;;;4948889;28;25123;-75
2023/03/15 02:36:57;;;;;;;5.20;1.80;;;;;;;;;;4948330;28;25057;-73
2023/03/15 02:39:24;;;;;;;3.25;1.02;;;;;;;;;;4946749;28;25078;-72
2023/03/15 02:41:52;;;;;;;4.45;1.33;;;;;;;;;;4944571;28;25090;-74
2023/03/15 02:44:37;;;;;;;3.95;1.40;;;;;;;;;;4968705;28;25074;-74
2023/03/15 02:47:24;;;;;;;3.45;1.33;;;;;;;;;;4946429;28;25106;-75
2023/03/15 02:49:51;;;;;;;4.68;1.70;;;;;;;;;;4945409;28;25073;-74
2023/03/15 02:52:17;;;;;;;3.17;1.13;;;;;;;;;;4956172;28;25065;-76
2023/03/15 02:54:43;;;;;;;2.15;1.42;;;;;;;;;;4945115;28;25155;-76
2023/03/15 02:57:10;;;;;;;4.50;1.30;;;;;;;;;;4945323;28;25111;-74
2023/03/15 02:59:36;;;;;;;3.38;1.42;;;;;;;;;;4952245;28;25133;-75
2023/03/15 03:02:02;;;;;;;1.77;1.08;;;;;;;;;;4956381;28;25068;-74
2023/03/15 03:04:28;;;;;;;4.82;1.23;;;;;;;;;;4943281;28;25083;-73
2023/03/15 03:06:53;;;;;;;8.15;1.30;;;5.40;99.90;;;;;;4949492;28;25062;-75
2023/03/15 03:09:20;;;;;;;5.03;1.52;;;;;;;;;;4952790;28;25079;-77
2023/03/15 03:11:45;;;;;;;6.28;1.42;;;;;;;;;;4942608;28;25088;-74
2023/03/15 03:14:14;;;;;;;4.05;1.63;;;;;;;;;;4952875;28;25093;-74
2023/03/15 03:16:41;;;;;;;2.83;1.45;;;;;;;;;;4945542;28;25069;-74
2023/03/15 03:19:07;;;;;;;4.63;1.30;;;;;;;;;;4946797;28;25058;-74
2023/03/15 03:21:33;;;;;;;3.47;1.60;;;;;;;;;;4950948;28;25166;-74
2023/03/15 03:23:59;;;;;;;3.22;1.48;;;;;;;;;;4940753;28;25074;-76
2023/03/15 03:26:27;;;;;;;4.20;1.30;;;;;;;;;;4955921;28;25152;-76
2023/03/15 03:28:53;;;;;;;3.67;1.45;;;;;;;;;;4953777;28;25072;-74
2023/03/15 03:31:21;;;;;;;5.45;1.10;;;;;;;;;;4956581;28;25050;-75
2023/03/15 03:33:47;;;;;;;3.83;1.50;;;;;;;;;;4953971;28;25122;-75
2023/03/15 03:36:13;;;;;;;1.60;1.38;;;;;;;;;;4949069;28;25079;-75
2023/03/15 03:38:40;;;;;;;4.82;1.80;;;;;;;;;;4971442;28;25155;-73
2023/03/15 03:41:06;;;;;;;3.47;1.75;;;;;;;;;;4955075;28;25061;-76
2023/03/15 03:43:32;;;;;;;5.97;2.30;;;;;;;;;;4948528;28;25066;-74
2023/03/15 03:45:58;;;;;;;7.25;2.00;;;;;;;;;;4942908;28;25076;-75
2023/03/15 03:48:24;;;;;;;3.55;1.80;;;;;;;;;;4958820;28;25075;-73
2023/03/15 03:50:50;;;;;;;8.25;2.00;;;;;;;;;;4953737;28;25128;-75
2023/03/15 03:53:16;;;;;;;7.43;2.35;;;;;;;;;;4954081;28;25075;-73
2023/03/15 03:55:42;;;;;;;6.20;2.17;;;;;;;;;;4950034;28;25066;-75
2023/03/15 03:58:08;;;;;;;5.35;2.22;;;;;;;;;;4956861;28;25098;-74
2023/03/15 04:00:35;;;;;;;6.03;2.55;;;;;;;;;;4957323;28;25075;-78
2023/03/15 04:03:01;;;;;;;4.20;2.33;;;;;;;;;;4954465;28;25064;-75
2023/03/15 04:05:27;;;;;;;3.72;2.33;;;;;;;;;;4943691;28;25078;-73
2023/03/15 04:07:53;;;;;;;5.20;2.60;;;;;;;;;;4953275;28;25085;-75
2023/03/15 04:10:25;;;;;;;4.60;2.38;;;;;;;;;;4944818;28;25140;-74
2023/03/15 04:12:55;;;;;;;8.82;2.75;;;;;;;;;;4949490;28;25147;-73
2023/03/15 04:15:21;;;;;;;3.88;2.63;;;;;;;;;;4948857;28;25071;-73
2023/03/15 04:17:48;;;;;;;6.18;1.90;;;;;;;;;;4955297;28;25066;-77
2023/03/15 04:20:16;;;;;;;6.18;2.10;;;;;;;;;;4945609;28;25083;-73
2023/03/15 04:22:48;;;;;;;3.38;1.92;;;;;;;;;;4949406;28;25078;-73
2023/03/15 04:25:14;;;;;;;6.70;1.88;;;;;;;;;;4949642;28;25134;-77
2023/03/15 04:27:40;;;;;;;10.98;1.80;;;;;;;;;;4952101;28;25074;-74
2023/03/15 04:30:07;;;;;;;10.13;1.63;;;;;;;;;;4946239;28;25073;-71
2023/03/15 04:32:33;;;;;;;5.80;1.25;;;;;;;;;;4945849;28;25074;-74
2023/03/15 04:35:00;;;;;;;4.53;0.93;;;;;;;;;;4953765;28;25070;-74
2023/03/15 04:37:27;;;;;;;7.28;1.60;;;;;;;;;;4950039;28;25055;-72
2023/03/15 04:39:53;;;;;;;4.03;1.42;;;;;;;;;;4955181;28;25076;-73
2023/03/15 04:42:19;;;;;;;4.38;1.30;;;;;;;;;;4953763;28;25074;-73
2023/03/15 04:44:45;;;;;;;1.90;1.02;;;;;;;;;;4947083;28;25105;-72
2023/03/15 04:47:11;;;;;;;4.05;0.88;;;;;;;;;;4957070;28;25082;-76
2023/03/15 04:49:37;;;;;;;1.48;0.90;;;;;;;;;;4940866;28;25086;-74
2023/03/15 04:52:03;;;;;;;5.15;1.25;;;;;;;;;;4966924;28;25092;-74
2023/03/15 04:54:29;;;;;;;2.33;0.85;;;;;;;;;;4951515;28;25172;-77
2023/03/15 04:56:55;;;;;;;2.03;0.68;;;;;;;;;;4948430;28;25071;-74
2023/03/15 04:59:21;;;;;;;3.92;0.70;;;;;;;;;;4946376;28;25078;-76
2023/03/15 05:01:47;;;;;;;10.60;1.55;;;;;;;;;;4948964;28;25070;-76
2023/03/15 05:04:13;;;;;;;1.30;0.73;;;;;;;;;;4941835;28;25076;-75
2023/03/15 05:06:39;;;;;;;0.90;0.75;;;;;;;;;;4948386;28;25130;-78
2023/03/15 05:09:05;;;;;;;2.20;0.77;;;;;;;;;;4956723;28;25073;-75
2023/03/15 05:11:31;;;;;;;6.63;0.65;;;;;;;;;;4944761;28;25065;-77
2023/03/15 05:13:57;;;;;;;2.13;0.77;;;;;;;;;;4948476;28;25138;-75
2023/03/15 05:16:23;;;;;;;2.53;0.90;;;;;;;;;;4950380;28;25152;-74
2023/03/15 05:18:49;;;;;;;3.25;0.77;;;5.00;99.90;;;;;;4951613;28;25165;-75
2023/03/15 05:21:15;;;;;;;5.72;0.90;;;5.00;99.90;;;;;;4942228;28;25099;-78
2023/03/15 05:23:41;;;;;;;2.95;1.50;;;;;;;;;;4946340;28;25074;-74
2023/03/15 05:26:06;;;;;;;3.70;0.95;;;;;;;;;;4950323;28;25117;-77
2023/03/15 05:28:32;;;;;;;2.67;1.10;;;;;;;;;;4948559;28;25165;-74
2023/03/15 05:31:01;;;;;;;6.65;0.95;;;;;;;;;;4951943;28;25075;-77
2023/03/15 05:33:27;;;;;;;9.80;2.35;;;;;;;;;;4949424;28;25109;-73
2023/03/15 05:35:55;;;;;;;5.75;1.52;;;;;;;;;;4949540;28;25093;-74
2023/03/15 05:38:25;;;;;;;2.45;0.65;;;4.50;99.90;;;;;;4946649;28;25108;-75
2023/03/15 05:40:51;;;;;;;4.60;0.80;;;;;;;;;;4949183;28;25052;-79
2023/03/15 05:43:16;;;;;;;4.07;1.27;;;4.20;99.90;;;;;;4949636;28;25139;-75
2023/03/15 05:45:43;;;;;;;4.60;1.02;;;;;;;;;;4946961;28;25140;-75
2023/03/15 05:48:09;;;;;;;3.40;1.10;;;;;;;;;;4966124;28;25068;-76
2023/03/15 05:50:35;;;;;;;7.32;3.05;;;;;;;;;;4956926;28;25051;-76
2023/03/15 05:53:01;;;;;;;5.72;2.08;;;;;;;;;;4944748;28;25109;-79
2023/03/15 05:55:27;;;;;;;11.98;2.13;;;;;;;;;;4952218;28;25145;-76
2023/03/15 05:57:53;;;;;;;7.38;1.20;;;;;;;;;;4949654;28;25072;-76
2023/03/15 06:00:19;;;;;;;6.60;1.20;;;;;;;;;;4942687;28;25071;-77
2023/03/15 06:02:46;;;;;;;2.97;1.05;;;;;;;;;;4945324;28;25063;-77
2023/03/15 06:05:12;;;;;;;3.90;1.23;;;;;;;;;;4985881;28;25084;-76
2023/03/15 06:07:38;;;;;;;5.15;1.73;;;;;;;;;;4942177;28;25060;-76
2023/03/15 06:10:04;;;;;;;3.78;1.70;;;;;;;;;;4946039;28;25067;-76
2023/03/15 06:12:30;;;;;;;4.95;1.77;;;;;;;;;;4955914;28;25085;-75
2023/03/15 06:14:56;;;;;;;3.40;1.10;;;;;;;;;;4955850;28;25064;-76
2023/03/15 06:17:22;;;;;;;5.68;1.95;;;;;;;;;;4947251;28;25072;-77
2023/03/15 06:19:48;;;;;;;4.60;1.35;;;;;;;;;;4949504;28;25099;-76
2023/03/15 06:22:14;;;;;;;5.32;1.50;;;;;;;;;;4946150;28;25060;-78
2023/03/15 06:24:40;;;;;;;6.07;0.85;;;;;;;;;;4937256;28;25109;-77
2023/03/15 06:27:06;;;;;;;2.75;1.00;;;;;;;;;;4937155;28;25112;-78
2023/03/15 06:29:32;;;;;;;1.42;0.80;;;;;;;;;;4948934;28;25074;-76
2023/03/15 06:31:58;;;;;;;3.67;1.58;;;;;;;;;;4948593;28;25074;-76
2023/03/15 06:34:24;;;;;;;7.47;1.45;;;;;;;;;;4951890;28;25086;-77
2023/03/15 06:36:51;;;;;;;3.35;1.65;;;;;;;;;;4950072;28;25099;-75
2023/03/15 06:39:17;;;;;;;3.42;1.02;;;;;;;;;;4944711;28;25058;-76
2023/03/15 06:41:43;;;;;;;3.92;1.27;;;;;;;;;;4962468;28;25089;-79
2023/03/15 06:44:09;;;;;;;3.90;0.95;;;;;;;;;;4943291;28;25057;-80
2023/03/15 06:46:35;;;;;;;3.70;1.25;;;;;;;;;;4951088;28;25080;-79
2023/03/15 06:49:02;;;;;;;2.78;1.35;;;;;;;;;;4944986;28;25078;-79
2023/03/15 06:51:28;;;;;;;2.90;1.27;;;;;;;;;;4949435;28;25081;-78
2023/03/15 06:53:54;;;;;;;4.22;1.58;;;;;;;;;;4944334;28;25054;-79
2023/03/15 06:56:20;;;;;;;4.57;1.33;;;;;;;;;;4948923;28;25076;-75
2023/03/15 06:58:46;;;;;;;2.08;1.65;;;;;;;;;;4950410;28;25137;-78
2023/03/15 07:01:13;;;;;;;9.27;2.88;;;;;;;;;;4953372;28;25120;-81
2023/03/15 07:03:39;;;;;;;4.82;1.65;;;;;;;;;;4965917;28;25069;-75
2023/03/15 07:06:05;;;;;;;5.90;1.75;;;;;;;;;;4963266;28;25081;-76
2023/03/15 07:08:31;;;;;;;2.97;1.55;;;;;;;;;;4957748;28;25068;-78
2023/03/15 07:10:57;;;;;;;3.53;1.30;;;;;;;;;;4951625;28;25084;-76
2023/03/15 07:13:23;;;;;;;1.95;1.30;;;;;;;;;;4953350;28;25071;-79
2023/03/15 07:15:53;;;;;;;5.55;1.63;;;;;;;;;;4956759;28;25070;-78
2023/03/15 07:18:19;;;;;;;4.47;1.65;;;;;;;;;;4958992;28;25084;-77
2023/03/15 07:20:45;;;;;;;5.28;1.45;;;;;;;;;;4942612;28;25102;-78
2023/03/15 07:23:11;;;;;;;5.75;1.23;;;;;;;;;;4957753;28;25067;-79
2023/03/15 07:25:37;;;;;;;5.78;1.13;;;;;;;;;;4969220;28;25068;-82
2023/03/15 07:28:03;;;;;;;4.65;1.30;;;;;;;;;;4953046;28;25096;-76
2023/03/15 07:30:29;;;;;;;2.05;1.20;;;;;;;;;;4956223;28;25099;-76
2023/03/15 07:32:55;;;;;;;1.42;1.20;;;;;;;;;;4949126;28;25063;-75
2023/03/15 07:35:21;;;;;;;4.65;1.38;;;;;;;;;;4961415;28;25062;-76
2023/03/15 07:37:47;;;;;;;3.03;1.25;;;;;;;;;;4956977;28;25073;-75
2023/03/15 07:40:14;;;;;;;9.93;2.42;;;;;;;;;;4961766;28;25085;-76
2023/03/15 07:42:40;;;;;;;1.63;1.20;;;;;;;;;;4970819;28;25106;-79
2023/03/15 07:45:07;;;;;;;3.35;1.20;;;;;;;;;;4959255;28;25070;-76
2023/03/15 07:47:33;;;;;;;3.70;1.30;;;;;;;;;;4972940;28;25065;-78
2023/03/15 07:49:59;;;;;;;3.42;1.30;;;;;;;;;;4969954;28;25100;-80
2023/03/15 07:52:25;;;;;;;7.50;1.30;;;;;;;;;;4958898;28;25064;-80
2023/03/15 07:54:51;;;;;;;3.75;1.42;;;;;;;;;;4966193;28;25107;-76
2023/03/15 07:57:17;;;;;;;3.67;1.10;;;;;;;;;;4966796;28;25059;-79
2023/03/15 07:59:43;;;;;;;11.15;1.08;;;;;;;;;;4970356;28;25077;-76
2023/03/15 08:02:12;;;;;;;3.92;1.23;;;;;;;;;;4964082;28;25077;-76
2023/03/15 08:04:38;;;;;;;7.20;1.38;;;;;;;;;;4973218;28;25080;-79
2023/03/15 08:07:04;;;;;;;4.15;1.40;;;;;;;;;;4964126;28;25061;-80
2023/03/15 08:09:33;;;;;;;7.78;1.23;;;;;;;;;;4967330;28;25075;-81
2023/03/15 08:12:00;;;;;;;11.93;1.52;;;;;;;;;;4965572;28;25056;-80
2023/03/15 08:14:25;;;;;;;10.80;1.35;;;;;;;;;;4970861;28;25080;-78
2023/03/15 08:16:51;;;;;;;10.40;1.63;;;;;;;;;;4969503;28;25055;-79
2023/03/15 08:19:17;;;;;;;4.55;1.35;;;;;;;;;;4956346;28;25076;-76
2023/03/15 08:21:44;;;;;;;5.18;1.60;;;;;;;;;;4951063;28;25078;-75
2023/03/15 08:24:10;;;;;;;5.28;1.35;;;5.50;99.90;;;;;;4947839;28;25119;-76
2023/03/15 08:26:36;;;;;;;8.48;1.65;;;5.70;99.90;;;;;;4945873;28;25058;-77
2023/03/15 08:29:02;;;;;;;5.15;1.20;;;;;;;;;;4944896;28;25077;-77
2023/03/15 08:31:28;;;;;;;3.85;0.95;;;;;;;;;;4943455;28;25102;-76
2023/03/15 08:33:54;;;;;;;5.65;1.20;;;;;;;;;;4943328;28;25108;-78
2023/03/15 08:36:20;;;;;;;4.78;0.93;;;;;;;;;;4945130;28;25087;-81
2023/03/15 08:38:46;;;;;;;5.43;1.08;;;;;;;;;;4957966;28;25075;-81
2023/03/15 08:41:12;;;;;;;3.45;1.05;;;;;;;;;;4968189;28;25067;-80
2023/03/15 08:43:38;;;;;;;8.52;1.98;;;;;;;;;;4952893;28;25079;-76
2023/03/15 08:46:04;;;;;;;3.53;1.17;;;;;;;;;;4944373;28;25058;-76
2023/03/15 08:48:30;;;;;;;16.92;1.75;;;;;;;;;;4949115;28;25078;-73
2023/03/15 08:51:01;;;;;;;5.78;2.70;;;;;;;;;;4943502;28;25061;-76
2023/03/15 08:53:26;;;;;;;5.32;1.20;;;7.80;99.90;;;;;;4948930;28;25066;-80
2023/03/15 08:55:53;;;;;;;2.17;1.00;;;;;;;;;;4963129;28;25138;-81
2023/03/15 08:58:18;;;;;;;6.03;1.10;;;;;;;;;;4944606;28;25059;-75
2023/03/15 09:00:45;;;;;;;3.15;0.80;;;;;;;;;;4937067;28;25082;-74
2023/03/15 09:03:11;;;;;;;7.80;1.48;;;;;;;;;;4940759;28;25107;-76
2023/03/15 09:05:37;;;;;;;2.63;1.40;;;;;;;;;;4944954;28;25135;-83
2023/03/15 09:08:04;;;;;;;5.72;0.90;;;;;;;;;;4953055;28;25070;-76
2023/03/15 09:10:30;;;;;;;2.85;1.13;;;;;;;;;;4947641;28;25106;-78
2023/03/15 09:12:56;;;;;;;7.45;1.42;;;;;;;;;;4947709;28;25080;-76
2023/03/15 09:15:22;;;;;;;3.83;0.90;;;;;;;;;;4945454;28;25074;-77
2023/03/15 09:17:49;;;;;;;6.05;1.40;;;;;;;;;;4944538;28;25070;-76
2023/03/15 09:20:17;;;;;;;3.58;0.95;;;;;;;;;;4945837;28;25083;-76
2023/03/15 09:22:44;;;;;;;4.45;1.30;;;;;;;;;;4924815;28;25071;-77
2023/03/15 09:25:10;;;;;;;1.98;1.08;;;;;;;;;;4929880;28;25168;-74
2023/03/15 09:27:36;;;;;;;4.80;1.13;;;;;;;;;;4944975;28;25072;-75
2023/03/15 09:30:03;;;;;;;9.75;1.42;;;;;;;;;;4947805;28;25146;-75
2023/03/15 09:32:34;;;;;;;3.83;1.10;;;;;;;;;;4943304;28;25102;-76
2023/03/15 09:35:00;;;;;;;6.35;1.30;;;;;;;;;;4948778;28;25094;-77
2023/03/15 09:37:27;;;;;;;3.20;0.98;;;;;;;;;;4946772;28;25059;-75
2023/03/15 09:39:53;;;;;;;4.07;0.85;;;;;;;;;;4941478;28;25055;-78
2023/03/15 09:42:24;;;;;;;9.13;1.25;;;;;;;;;;4940242;28;25126;-76
2023/03/15 09:44:56;;;;;;;8.52;1.15;;;;;;;;;;4940679;28;25173;-77
2023/03/15 09:47:22;;;;;;;4.68;1.17;;;;;;;;;;4944730;28;25095;-77
2023/03/15 09:49:53;;;;;;;1.67;0.70;;;;;;;;;;4939241;28;25166;-77
2023/03/15 09:52:22;;;;;;;4.53;0.93;;;;;;;;;;4940925;28;25071;-76
2023/03/15 09:54:58;;;;;;;7.18;1.13;;;;;;;;;;4948260;28;25083;-76
2023/03/15 09:57:30;;;;;;;9.68;1.65;;;;;;;;;;4944950;28;25110;-76
2023/03/15 09:59:56;;;;;;;;;;;;;;;;;;4945062;28;25087;-76
2023/03/15 10:02:27;;;;;;;9.43;1.67;;;;;;;;;;4944327;28;24100;-79
2023/03/15 10:04:58;;;;;;;4.65;0.80;;;;;;;;;;4952003;28;25156;-76
2023/03/15 10:07:24;;;;;;;6.88;0.98;;;;;;;;;;4941520;28;25143;-76
2023/03/15 10:09:50;;;;;;;4.82;0.88;;;;;;;;;;4941038;28;25142;-75
2023/03/15 10:12:18;;;;;;;6.32;1.02;;;;;;;;;;4930088;28;25130;-74
2023/03/15 10:14:50;;;;;;;4.30;0.80;;;;;;;;;;4949728;28;25089;-76
2023/03/15 10:17:34;;;;;;;12.93;2.65;;;;;;;;;;4936604;28;25064;-75
2023/03/15 10:20:11;;;;;;;4.57;0.70;;;;;;;;;;4944100;28;25095;-74
2023/03/15 10:22:44;;;;;;;4.68;0.82;;;;;;;;;;4938003;28;25098;-76
2023/03/15 10:25:13;;;;;;;9.88;1.17;;;;;;;;;;4937212;28;25096;-74
2023/03/15 10:27:45;;;;;;;4.38;0.90;;;;;;;;;;4943920;28;25071;-75
2023/03/15 10:30:11;;;;;;;;;;;;;;;;;;4937259;28;25077;-74
2023/03/15 10:32:40;;;;;;;6.75;0.93;;;;;;;;;;4939119;28;25070;-75
2023/03/15 10:35:13;;;;;;;3.63;1.00;;;;;;;;;;4935212;28;25077;-76
2023/03/15 10:37:38;;;;;;;;;;;;;;;;;;4933803;28;25078;-75
2023/03/15 10:40:09;;;;;;;4.70;0.75;;;;;;;;;;4943472;28;25063;-74
2023/03/15 10:42:35;;;;;;;5.07;1.00;;;;;;;;;;4932897;28;25093;-75
2023/03/15 10:45:11;;;;;;;3.50;0.80;;;;;;;;;;4945688;28;25051;-74
2023/03/15 10:47:42;;;;;;;4.60;1.00;;;;;;;;;;4938998;28;25135;-75
2023/03/15 10:50:09;;;;;;;5.97;0.80;;;;;;;;;;4941571;28;25069;-75
2023/03/15 10:52:37;;;;;;;5.10;1.70;;;;;;;;;;4938684;28;25129;-75
2023/03/15 10:55:05;;;;;;;3.50;1.23;;;;;;;;;;4940998;28;25071;-74
2023/03/15 10:57:38;;;;;;;4.05;0.90;;;;;;;;;;4945004;28;25154;-75
2023/03/15 11:00:08;;;;;;;2.13;0.82;;;;;;;;;;4940804;28;25047;-74
2023/03/15 11:02:35;;;;;;;3.08;1.35;;;;;;;;;;4940609;28;25084;-78
2023/03/15 11:05:11;;;;;;;2.72;1.15;;;;;;;;;;4942100;28;25066;-74
2023/03/15 11:07:37;;;;;;;3.22;1.00;;;;;;;;;;4934580;28;25065;-73
2023/03/15 11:10:05;;;;;;;4.80;0.93;;;;;;;;;;4930939;28;25084;-74
2023/03/15 11:12:32;;;;;;;5.43;0.90;;;;;;;;;;4929057;28;25142;-74
2023/03/15 11:15:18;;;;;;;3.25;0.77;;;;;;;;;;4939340;28;25171;-73
2023/03/15 11:17:46;;;;;;;4.40;1.73;;;;;;;;;;4940599;28;25059;-74
2023/03/15 11:20:18;;;;;;;7.13;1.58;;;;;;;;;;4942248;28;25075;-74
2023/03/15 11:22:44;;;;;;;2.38;1.08;;;;;;;;;;4938933;28;25099;-73
2023/03/15 11:25:14;;;;;;;5.00;1.48;;;;;;;;;;4936980;28;25085;-72
2023/03/15 11:27:42;;;;;;;2.05;1.00;;;;;;;;;;4934025;28;25065;-73
2023/03/15 11:30:17;;;;;;;5.28;0.93;;;;;;;;;;4932720;28;25058;-72
2023/03/15 11:32:44;;;;;;;2.92;0.75;;;;;;;;;;4940848;28;25076;-71
2023/03/15 11:35:13;;;;;;;1.50;0.70;;;;;;;;;;4929825;28;25069;-72
2023/03/15 11:37:46;;;;;;;2.97;1.30;;;;;;;;;;4944008;28;25071;-73
2023/03/15 11:40:21;;;;;;;3.13;1.02;;;;;;;;;;4935760;28;25125;-73
2023/03/15 11:42:50;;;;;;;2.40;0.60;;;;;;;;;;4935930;28;25068;-74
2023/03/15 11:45:19;;;;;;;3.40;0.73;;;;;;;;;;4944134;28;25065;-75
2023/03/15 11:47:52;;;;;;;1.52;0.52;;;;;;;;;;4953407;28;25064;-72
2023/03/15 11:50:18;;;;;;;1.67;0.50;;;;;;;;;;4960291;28;25059;-73
2023/03/15 11:52:48;;;;;;;2.35;0.70;;;;;;;;;;4951587;28;25184;-73
2023/03/15 11:55:19;;;;;;;4.03;0.90;;;;;;;;;;4954558;28;25158;-70
2023/03/15 11:57:46;;;;;;;3.67;0.80;;;;;;;;;;4946460;28;25054;-72
2023/03/15 12:00:27;;;;;;;1.40;0.65;;;;;;;;;;4955741;28;25083;-72
2023/03/15 12:02:54;;;;;;;4.07;0.90;;;;;;;;;;4945183;28;25100;-72
2023/03/15 12:05:39;;;;;;;5.35;0.93;;;;;;;;;;4974107;28;25151;-71
2023/03/15 12:08:33;;;;;;;7.00;2.53;;;;;;;;;;4946068;28;25079;-72
2023/03/15 12:10:59;;;;;;;2.20;0.60;;;;;;;;;;4928520;28;25092;-71
2023/03/15 12:13:27;;;;;;;6.65;0.98;;;;;;;;;;4945061;28;25060;-73
2023/03/15 12:15:54;;;;;;;4.72;0.52;;;;;;;;;;4938763;28;25063;-73
2023/03/15 12:18:21;;;;;;;3.35;0.80;;;;;;;;;;4934612;28;25063;-73
2023/03/15 12:21:07;;;;;;;2.75;0.60;;;;;;;;;;4933721;28;25105;-74
2023/03/15 12:23:38;;;;;;;2.55;0.80;;;;;;;;;;4938697;28;25096;-72
2023/03/15 12:26:06;;;;;;;1.23;0.70;;;;;;;;;;4930166;28;25087;-73
2023/03/15 12:28:36;;;;;;;2.00;0.60;;;;;;;;;;4939853;28;25143;-74
2023/03/15 12:31:04;;;;;;;2.58;0.68;;;;;;;;;;4947352;28;25080;-74
2023/03/15 12:33:32;;;;;;;3.00;1.05;;;;;;;;;;4923448;28;25077;-72
2023/03/15 12:36:08;;;;;;;2.95;0.52;;;;;;;;;;4952683;28;25051;-71
2023/03/15 12:38:40;;;;;;;3.03;0.88;;;;;;;;;;4943263;28;25190;-71
2023/03/15 12:41:31;;;;;;;1.90;0.80;;;;;;;;;;4939658;28;25069;-77
2023/03/15 12:44:15;;;;;;;4.13;0.90;;;;;;;;;;4928131;28;25050;-72
2023/03/15 12:46:41;;;;;;;0.57;0.57;;;;;;;;;;4939538;28;25060;-73
2023/03/15 12:49:11;;;;;;;2.17;0.80;;;;;;;;;;4943982;28;25085;-72
2023/03/15 12:51:42;;;;;;;6.68;1.15;;;;;;;;;;4941712;28;25067;-72
2023/03/15 12:54:12;;;;;;;3.22;0.70;;;;;;;;;;4946357;28;25085;-73
2023/03/15 12:56:44;;;;;;;4.80;1.00;;;;;;;;;;4938526;28;25091;-72
2023/03/15 12:59:31;;;;;;;5.50;0.82;;;;;;;;;;4931666;28;25106;-72
2023/03/15 13:01:58;;;;;;;4.13;1.52;;;;;;;;;;4934675;28;25070;-72
2023/03/15 13:04:26;;;;;;;2.55;0.80;;;;;;;;;;4937839;28;25069;-72
2023/03/15 13:06:57;;;;;;;3.47;0.80;;;;;;;;;;4932832;28;25064;-71
2023/03/15 13:09:41;;;;;;;7.53;1.20;;;;;;;;;;4938538;28;25069;-72
2023/03/15 13:12:16;;;;;;;3.25;1.02;;;;;;;;;;4942991;28;25066;-72
2023/03/15 13:14:46;;;;;;;3.25;0.75;;;;;;;;;;4939714;28;25095;-73
2023/03/15 13:17:35;;;;;;;2.58;0.65;;;;;;;;;;4945424;28;25124;-73
2023/03/15 13:20:15;;;;;;;3.50;1.05;;;;;;;;;;4935093;28;25077;-71
2023/03/15 13:23:03;;;;;;;2.25;0.70;;;;;;;;;;4952635;28;25165;-71
2023/03/15 13:25:31;;;;;;;2.05;0.90;;;;;;;;;;4931083;28;25147;-71
2023/03/15 13:28:27;;;;;;;1.95;1.05;;;;;;;;;;4933564;28;25058;-71
2023/03/15 13:30:53;;;;;;;3.63;0.93;;;;;;;;;;4937122;28;25061;-72
2023/03/15 13:33:30;;;;;;;2.58;1.27;;;;;;;;;;4940541;28;25095;-71
2023/03/15 13:35:59;;;;;;;0.68;0.60;;;;;;;;;;4942342;28;25067;-72
2023/03/15 13:38:27;;;;;;;3.67;1.10;;;;;;;;;;4945025;28;25067;-72
2023/03/15 13:40:54;;;;;;;1.95;0.98;;;;;;;;;;4942624;28;25095;-71
2023/03/15 13:43:20;;;;;;;1.05;0.65;;;;;;;;;;4942178;28;25170;-70
2023/03/15 13:45:46;;;;;;;4.00;0.80;;;;;;;;;;4958613;28;25491;-71
2023/03/15 13:48:12;;;;;;;6.10;1.10;;;;;;;;;;4945981;28;25110;-73
2023/03/15 13:50:38;;;;;;;1.10;0.70;;;;;;;;;;4935477;28;25126;-70
2023/03/15 13:53:04;;;;;;;1.45;0.65;;;;;;;;;;4936070;28;25064;-71
2023/03/15 13:55:35;;;;;;;1.20;0.70;;;;;;;;;;4940606;28;25103;-71
2023/03/15 13:58:05;;;;;;;0.95;0.65;;;;;;;;;;4944813;28;25061;-72
2023/03/15 14:00:32;;;;;;;2.35;0.75;;;;;;;;;;4934024;28;25053;-72
2023/03/15 14:03:00;;;;;;;2.47;1.77;;;;;;;;;;4941454;28;25099;-71
2023/03/15 14:05:28;;;;;;;6.38;0.90;;;;;;;;;;4944784;28;25138;-73
2023/03/15 14:07:56;;;;;;;9.68;2.03;;;;;;;;;;4928418;28;25057;-72
2023/03/15 14:10:25;;;;;;;1.05;0.65;;;;;;;;;;4948974;28;25144;-70
2023/03/15 14:12:51;;;;;;;3.05;1.40;;;;;;;;;;4928640;28;25155;-70
2023/03/15 14:15:38;;;;;;;1.95;0.93;;;;;;;;;;4930369;28;25185;-72
2023/03/15 14:18:04;;;;;;;2.85;0.60;;;;;;;;;;4937018;28;25049;-75
2023/03/15 14:20:56;;;;;;;3.03;1.02;;;;;;;;;;4942308;28;25087;-75
2023/03/15 14:23:23;;;;;;;0.43;0.43;;;;;;;;;;4943268;28;25095;-70
2023/03/15 14:26:15;;;;;;;1.77;0.77;;;;;;;;;;4934194;28;25145;-71
2023/03/15 14:28:46;;;;;;;5.38;1.42;;;;;;;;;;4936133;28;25087;-72
2023/03/15 14:31:22;;;;;;;2.70;0.80;;;;;;;;;;4932960;28;25486;-71
2023/03/15 14:33:52;;;;;;;2.78;0.95;;;;;;;;;;4939208;28;25073;-71
2023/03/15 14:36:29;;;;;;;2.53;0.47;;;;;;;;;;4940354;28;25083;-72
2023/03/15 14:38:57;;;;;;;2.33;0.70;;;;;;;;;;4939589;28;25088;-72
2023/03/15 14:41:33;;;;;;;1.35;0.55;;;;;;;;;;4939891;28;25136;-72
2023/03/15 14:44:03;;;;;;;1.00;0.88;;;;;;;;;;4936661;28;25080;-73
2023/03/15 14:46:30;;;;;;;1.85;0.88;;;;;;;;;;4945405;28;25074;-72